Weather at Borongan Airport

Public forecast

Using degrees Celsius for public forecast. Weather courtesy of forecast.io.

Closest aviation weather report (METAR) to Borongan Airport

Closest report is Mactan Cebu International Airport, 120.5 nm (223.2 km) SW.

2023/05/27 22:00 (retrieved 52 minutes ago)

RPVM 272200Z 23006KT 9999 FEW020 BKN300 27/24 Q1006 NOSIG RMK A2971

Closest aviation forecast (TAF) to Borongan Airport

Closest forecast is Mactan Cebu International Airport, 120.5 nm (223.2 km) SW.

2023/05/27 18:00 (retrieved 5 hours ago)

TAF RPVM 271700Z 2718/2824 23013KT 9999 FEW020 BKN300 TEMPO 2718/2724 27007KT TEMPO 2800/2806 23013G23KT 7000 -SHRA FEW018CB BKN100